createdAt,value
2023-09-06T00:00:50.452Z,2.20
2023-09-06T00:03:18.341Z,1.98
2023-09-06T00:05:45.691Z,1.80
2023-09-06T00:08:15.378Z,2.13
2023-09-06T00:10:46.656Z,1.88
2023-09-06T00:13:15.019Z,1.92
2023-09-06T00:15:42.179Z,2.20
2023-09-06T00:18:09.230Z,1.92
2023-09-06T00:20:38.128Z,2.10
2023-09-06T00:23:10.682Z,2.58
2023-09-06T00:25:38.136Z,2.00
2023-09-06T00:28:06.590Z,2.40
2023-09-06T00:30:34.702Z,2.92
2023-09-06T00:33:07.012Z,2.60
2023-09-06T00:35:34.794Z,2.63
2023-09-06T00:38:07.679Z,2.78
2023-09-06T00:40:37.624Z,3.20
2023-09-06T00:43:06.876Z,3.20
2023-09-06T00:45:46.413Z,3.35
2023-09-06T00:48:24.526Z,3.63
2023-09-06T00:50:54.409Z,2.92
2023-09-06T00:53:22.864Z,2.50
2023-09-06T00:55:50.400Z,2.10
2023-09-06T00:58:20.456Z,2.58
2023-09-06T01:00:50.414Z,2.63
2023-09-06T01:03:19.563Z,2.53
2023-09-06T01:06:07.528Z,2.85
2023-09-06T01:08:48.045Z,2.90
2023-09-06T01:11:20.478Z,3.00
2023-09-06T01:13:53.180Z,2.20
2023-09-06T01:16:44.196Z,2.50
2023-09-06T01:19:14.666Z,2.83
2023-09-06T01:22:37.190Z,2.22
2023-09-06T01:25:04.559Z,2.10
2023-09-06T01:27:32.320Z,2.67
2023-09-06T01:29:59.755Z,2.88
2023-09-06T01:32:28.574Z,2.17
2023-09-06T01:34:55.830Z,2.17
2023-09-06T01:37:22.836Z,2.30
2023-09-06T01:39:49.818Z,2.10
2023-09-06T01:42:19.147Z,1.90
2023-09-06T01:44:46.079Z,2.50
2023-09-06T01:47:13.875Z,2.35
2023-09-06T01:49:40.857Z,2.72
2023-09-06T01:52:07.940Z,2.60
2023-09-06T01:54:34.978Z,2.35
2023-09-06T01:57:02.735Z,2.30
2023-09-06T01:59:29.808Z,2.63
2023-09-06T02:01:57.600Z,2.28
2023-09-06T02:04:24.687Z,2.55
2023-09-06T02:06:51.803Z,2.20
2023-09-06T02:09:19.090Z,2.30
2023-09-06T02:11:46.050Z,2.30
2023-09-06T02:14:13.046Z,2.83
2023-09-06T02:16:40.051Z,2.50
2023-09-06T02:19:07.818Z,2.88
2023-09-06T02:21:35.462Z,2.53
2023-09-06T02:24:02.297Z,2.25
2023-09-06T02:26:30.828Z,3.08
2023-09-06T02:28:59.852Z,2.75
2023-09-06T02:31:26.857Z,2.70
2023-09-06T02:33:54.376Z,2.88
2023-09-06T02:36:21.416Z,2.72
2023-09-06T02:38:49.374Z,2.78
2023-09-06T02:41:16.318Z,2.80
2023-09-06T02:43:43.342Z,2.53
2023-09-06T02:46:12.192Z,3.00
2023-09-06T02:48:39.624Z,2.90
2023-09-06T02:51:09.464Z,3.35
2023-09-06T02:53:36.602Z,2.80
2023-09-06T02:56:04.936Z,3.28
2023-09-06T02:58:32.987Z,3.10
2023-09-06T03:01:07.242Z,2.97
2023-09-06T03:03:34.835Z,2.92
2023-09-06T03:06:06.219Z,3.10
2023-09-06T03:08:34.151Z,2.95
2023-09-06T03:11:02.267Z,2.80
2023-09-06T03:13:33.056Z,3.22
2023-09-06T03:16:01.270Z,3.10
2023-09-06T03:18:30.674Z,3.33
2023-09-06T03:21:02.741Z,2.78
2023-09-06T03:23:30.945Z,3.30
2023-09-06T03:26:00.748Z,3.20
2023-09-06T03:28:34.751Z,3.28
2023-09-06T03:31:03.592Z,2.97
2023-09-06T03:33:32.039Z,3.10
2023-09-06T03:35:59.443Z,2.85
2023-09-06T03:38:28.248Z,3.08
2023-09-06T03:40:57.181Z,3.40
2023-09-06T03:43:32.368Z,3.70
2023-09-06T03:46:06.212Z,3.85
2023-09-06T03:48:35.803Z,3.75
2023-09-06T03:51:03.990Z,3.45
2023-09-06T03:53:33.995Z,4.18
2023-09-06T03:56:01.951Z,3.63
2023-09-06T03:58:42.249Z,3.55
2023-09-06T04:01:12.601Z,3.33
2023-09-06T04:03:41.857Z,3.58
2023-09-06T04:06:12.303Z,3.35
2023-09-06T04:08:40.197Z,3.83
2023-09-06T04:11:07.653Z,3.60
2023-09-06T04:13:34.730Z,4.10
2023-09-06T04:16:01.833Z,4.15
2023-09-06T04:18:33.077Z,3.47
2023-09-06T04:21:01.468Z,4.00
2023-09-06T04:23:29.091Z,3.83
2023-09-06T04:25:58.427Z,3.65
2023-09-06T04:30:59.851Z,3.65
2023-09-06T04:33:31.910Z,4.05
2023-09-06T04:36:05.816Z,4.45
2023-09-06T04:38:34.347Z,4.07
2023-09-06T04:41:03.859Z,4.32
2023-09-06T04:43:39.580Z,3.75
2023-09-06T04:46:07.138Z,3.90
2023-09-06T04:48:40.287Z,3.95
2023-09-06T04:51:09.233Z,3.65
2023-09-06T04:53:36.906Z,3.83
2023-09-06T04:56:05.490Z,5.07
2023-09-06T04:58:46.110Z,4.40
2023-09-06T05:01:13.089Z,4.20
2023-09-06T05:03:41.842Z,4.18
2023-09-06T05:06:09.122Z,4.63
2023-09-06T05:08:36.665Z,4.55
2023-09-06T05:11:14.916Z,4.47
2023-09-06T05:13:42.406Z,4.03
2023-09-06T05:16:10.692Z,4.40
2023-09-06T05:18:40.280Z,5.13
2023-09-06T05:21:07.817Z,4.72
2023-09-06T05:23:37.876Z,4.43
2023-09-06T05:26:05.723Z,4.70
2023-09-06T05:28:51.612Z,3.97
2023-09-06T05:31:20.375Z,4.38
2023-09-06T05:33:50.217Z,4.28
2023-09-06T05:36:19.347Z,4.50
2023-09-06T05:38:47.748Z,4.20
2023-09-06T05:41:16.823Z,4.70
2023-09-06T05:43:44.557Z,4.40
2023-09-06T05:46:31.511Z,4.28
2023-09-06T05:49:06.970Z,4.70
2023-09-06T05:51:37.517Z,4.53
2023-09-06T05:54:05.653Z,4.32
2023-09-06T05:56:35.182Z,4.80
2023-09-06T05:59:02.538Z,4.30
2023-09-06T06:01:34.595Z,4.35
2023-09-06T06:04:02.677Z,4.35
2023-09-06T06:06:31.533Z,4.20
2023-09-06T06:08:59.020Z,4.30
2023-09-06T06:11:28.375Z,4.47
2023-09-06T06:14:08.170Z,4.18
2023-09-06T06:16:37.629Z,3.97
2023-09-06T06:19:04.925Z,4.35
2023-09-06T06:21:32.972Z,4.13
2023-09-06T06:24:00.937Z,3.95
2023-09-06T06:26:29.245Z,4.55
2023-09-06T06:28:56.505Z,3.97
2023-09-06T06:31:23.721Z,3.92
2023-09-06T06:33:51.711Z,3.60
2023-09-06T06:36:18.734Z,4.00
2023-09-06T06:38:47.541Z,3.75
2023-09-06T06:41:21.727Z,3.75
2023-09-06T06:43:49.017Z,3.15
2023-09-06T06:46:30.797Z,3.78
2023-09-06T06:48:58.297Z,3.28
2023-09-06T06:51:32.928Z,3.28
2023-09-06T06:53:59.969Z,3.00
2023-09-06T06:56:27.249Z,2.95
2023-09-06T06:58:54.286Z,3.00
2023-09-06T07:01:24.405Z,3.15
2023-09-06T07:03:52.194Z,3.58
2023-09-06T07:06:19.344Z,4.22
2023-09-06T07:08:46.919Z,3.83
2023-09-06T07:11:15.127Z,2.42
2023-09-06T07:13:43.746Z,2.72
2023-09-06T07:16:10.904Z,2.15
2023-09-06T07:18:38.002Z,2.55
2023-09-06T07:21:05.530Z,2.17
2023-09-06T07:23:33.281Z,2.55
2023-09-06T07:26:00.703Z,2.22
2023-09-06T07:28:36.252Z,2.40
2023-09-06T07:31:03.622Z,2.35
2023-09-06T07:33:30.860Z,2.17
2023-09-06T07:35:58.050Z,2.20
2023-09-06T07:38:25.132Z,2.88
2023-09-06T07:40:59.145Z,2.10
2023-09-06T07:43:27.215Z,2.10
2023-09-06T07:45:54.250Z,2.30
2023-09-06T07:48:24.532Z,2.45
2023-09-06T07:50:53.317Z,2.10
2023-09-06T07:53:20.944Z,2.25
2023-09-06T07:55:48.611Z,2.22
2023-09-06T07:58:16.427Z,2.30
2023-09-06T08:00:44.028Z,2.20
2023-09-06T08:03:14.843Z,1.85
2023-09-06T08:05:42.126Z,1.80
2023-09-06T08:08:11.447Z,2.22
2023-09-06T08:10:39.369Z,1.88
2023-09-06T08:13:08.308Z,1.52
2023-09-06T08:15:36.795Z,2.10
2023-09-06T08:18:04.560Z,2.30
2023-09-06T08:20:32.814Z,2.03
2023-09-06T08:23:00.253Z,1.77
2023-09-06T08:25:27.295Z,1.70
2023-09-06T08:27:54.385Z,1.92
2023-09-06T08:30:21.943Z,1.85
2023-09-06T08:32:51.193Z,1.83
2023-09-06T08:35:19.067Z,2.10
2023-09-06T08:37:47.673Z,2.65
2023-09-06T08:40:15.339Z,2.05
2023-09-06T08:42:45.510Z,2.15
2023-09-06T08:45:12.598Z,1.90
2023-09-06T08:47:41.031Z,1.95
2023-09-06T08:50:11.139Z,2.08
2023-09-06T08:52:41.177Z,2.28
2023-09-06T08:55:11.017Z,2.47
2023-09-06T08:57:43.274Z,3.00
2023-09-06T09:00:12.256Z,3.20
2023-09-06T09:02:47.723Z,3.38
2023-09-06T09:05:21.202Z,3.97
2023-09-06T09:08:00.464Z,3.40
2023-09-06T09:10:31.305Z,3.75
2023-09-06T09:13:00.374Z,3.28
2023-09-06T09:15:27.930Z,2.97
2023-09-06T09:20:27.958Z,2.70
2023-09-06T09:23:02.791Z,2.88
2023-09-06T09:25:31.025Z,2.85
2023-09-06T09:27:59.760Z,2.15
2023-09-06T09:30:31.937Z,2.55
2023-09-06T09:33:05.560Z,1.98
2023-09-06T09:35:34.196Z,2.50
2023-09-06T09:38:03.058Z,2.20
2023-09-06T09:43:08.094Z,2.30
2023-09-06T09:45:47.266Z,2.38
2023-09-06T09:48:17.133Z,2.00
2023-09-06T09:50:45.816Z,2.22
2023-09-06T09:53:21.632Z,2.25
2023-09-06T09:55:50.303Z,2.17
2023-09-06T09:58:21.073Z,1.85
2023-09-06T10:00:51.950Z,1.90
2023-09-06T10:03:21.275Z,1.65
2023-09-06T10:05:49.355Z,1.50
2023-09-06T10:08:20.180Z,1.85
2023-09-06T10:10:47.316Z,1.15
2023-09-06T10:13:16.333Z,1.85
2023-09-06T10:15:45.395Z,1.75
2023-09-06T10:18:13.211Z,1.42
2023-09-06T10:20:41.311Z,1.50
2023-09-06T10:23:09.264Z,1.70
2023-09-06T10:25:50.534Z,1.70
2023-09-06T10:28:22.062Z,1.67
2023-09-06T10:30:55.947Z,1.67
2023-09-06T10:33:37.866Z,1.48
2023-09-06T10:38:53.681Z,1.80
2023-09-06T10:41:24.977Z,1.80
2023-09-06T10:44:05.106Z,1.63
2023-09-06T10:46:37.022Z,1.40
2023-09-06T10:49:22.659Z,1.40
2023-09-06T10:52:11.498Z,1.33
2023-09-06T10:54:46.315Z,1.70
2023-09-06T10:57:20.512Z,3.25
2023-09-06T11:00:21.413Z,1.42
2023-09-06T11:03:19.209Z,1.40
2023-09-06T11:05:58.508Z,1.35
2023-09-06T11:08:32.095Z,1.42
2023-09-06T11:11:06.341Z,0.90
2023-09-06T11:13:40.864Z,1.30
2023-09-06T11:16:14.779Z,1.08
2023-09-06T11:18:49.804Z,1.10
2023-09-06T11:21:23.124Z,1.23
2023-09-06T11:23:56.003Z,1.15
2023-09-06T11:26:27.340Z,1.25
2023-09-06T11:29:09.100Z,1.30
2023-09-06T11:31:39.725Z,1.40
2023-09-06T11:34:15.769Z,1.25
2023-09-06T11:36:43.677Z,1.20
2023-09-06T11:39:17.854Z,1.17
2023-09-06T11:41:46.016Z,1.55
2023-09-06T11:44:17.832Z,1.55
2023-09-06T11:49:16.260Z,1.52
2023-09-06T11:51:45.172Z,1.83
2023-09-06T11:54:14.015Z,1.85
2023-09-06T11:56:47.770Z,1.70
2023-09-06T11:59:15.655Z,1.80
2023-09-06T12:01:46.652Z,1.88
2023-09-06T12:04:18.540Z,2.10
2023-09-06T12:06:46.515Z,2.10
2023-09-06T12:09:19.845Z,1.98
2023-09-06T12:11:47.157Z,1.50
2023-09-06T12:14:17.996Z,1.48
2023-09-06T12:16:45.961Z,2.00
2023-09-06T12:19:23.745Z,1.60
2023-09-06T12:21:52.071Z,1.70
2023-09-06T12:24:23.128Z,1.60
2023-09-06T12:26:54.093Z,1.80
2023-09-06T12:29:21.321Z,1.70
2023-09-06T12:31:51.221Z,1.88
2023-09-06T12:34:21.548Z,1.73
2023-09-06T13:12:12.150Z,2.70
2023-09-06T13:17:06.045Z,2.00
2023-09-06T13:19:33.117Z,2.17
2023-09-06T13:22:00.033Z,2.40
2023-09-06T13:24:29.020Z,2.15
2023-09-06T13:26:56.354Z,2.30
2023-09-06T13:29:23.475Z,2.22
2023-09-06T13:31:51.368Z,2.55
2023-09-06T13:34:21.295Z,2.42
2023-09-06T13:36:50.050Z,2.40
2023-09-06T13:39:18.567Z,1.90
2023-09-06T13:41:45.889Z,2.15
2023-09-06T13:44:12.931Z,1.83
2023-09-06T13:46:39.857Z,1.45
2023-09-06T13:49:09.524Z,2.03
2023-09-06T13:51:37.139Z,1.58
2023-09-06T13:54:05.025Z,2.00
2023-09-06T13:56:32.778Z,1.60
2023-09-06T13:59:00.251Z,1.52
2023-09-06T14:01:27.989Z,1.80
2023-09-06T14:03:55.083Z,1.70
2023-09-06T14:06:22.927Z,1.63
2023-09-06T14:08:49.876Z,1.80
2023-09-06T14:11:17.753Z,1.98
2023-09-06T14:13:44.890Z,1.55
2023-09-06T14:16:12.242Z,1.90
2023-09-06T14:18:39.228Z,2.00
2023-09-06T14:21:06.538Z,1.98
2023-09-06T14:23:33.527Z,1.63
2023-09-06T14:26:00.534Z,1.90
2023-09-06T14:28:28.189Z,1.65
2023-09-06T14:30:56.025Z,1.40
2023-09-06T14:33:23.332Z,1.15
2023-09-06T14:35:50.411Z,1.35
2023-09-06T14:38:18.485Z,1.52
2023-09-06T14:40:46.853Z,1.38
2023-09-06T14:43:14.867Z,2.20
2023-09-06T14:45:42.449Z,1.85
2023-09-06T14:48:10.017Z,1.80
2023-09-06T14:50:37.088Z,1.30
2023-09-06T14:53:04.458Z,1.30
2023-09-06T14:55:32.252Z,1.60
2023-09-06T14:57:59.182Z,1.52
2023-09-06T15:00:26.964Z,1.50
2023-09-06T15:02:54.843Z,1.30
2023-09-06T15:05:22.800Z,1.60
2023-09-06T15:07:50.211Z,1.60
2023-09-06T15:10:17.255Z,1.75
2023-09-06T15:12:45.767Z,1.63
2023-09-06T15:15:17.157Z,1.98
2023-09-06T15:17:44.344Z,1.80
2023-09-06T15:20:14.478Z,2.08
2023-09-06T15:22:41.865Z,1.77
2023-09-06T15:25:11.301Z,2.22
2023-09-06T15:27:39.049Z,2.05
2023-09-06T15:30:08.735Z,2.40
2023-09-06T15:32:36.402Z,2.40
2023-09-06T15:35:04.702Z,2.50
2023-09-06T15:37:31.717Z,2.60
2023-09-06T15:39:58.705Z,2.78
2023-09-06T15:42:25.794Z,1.80
2023-09-06T15:44:53.159Z,2.03
2023-09-06T15:47:20.267Z,1.95
2023-09-06T15:49:48.937Z,2.05
2023-09-06T15:52:17.181Z,2.63
2023-09-06T15:54:45.394Z,2.70
2023-09-06T15:57:12.721Z,2.85
2023-09-06T15:59:39.754Z,2.83
2023-09-06T16:02:07.372Z,2.70
2023-09-06T16:04:34.501Z,3.03
2023-09-06T16:07:01.426Z,2.72
2023-09-06T16:09:28.420Z,3.13
2023-09-06T16:11:55.944Z,2.75
2023-09-06T16:14:23.470Z,3.10
2023-09-06T16:16:50.464Z,2.53
2023-09-06T16:19:18.816Z,2.95
2023-09-06T16:21:46.054Z,3.47
2023-09-06T16:24:13.113Z,2.83
2023-09-06T16:26:40.050Z,2.75
2023-09-06T16:29:11.958Z,3.00
2023-09-06T16:31:39.494Z,2.85
2023-09-06T16:34:07.396Z,4.20
2023-09-06T16:36:35.531Z,3.67
2023-09-06T16:39:03.532Z,2.97
2023-09-06T16:41:30.568Z,2.97
2023-09-06T16:43:57.572Z,2.70
2023-09-06T16:46:24.651Z,3.10
2023-09-06T16:48:51.677Z,2.92
2023-09-06T16:51:18.668Z,2.70
2023-09-06T16:53:45.575Z,2.40
2023-09-06T16:56:12.643Z,2.40
2023-09-06T16:58:41.509Z,2.80
2023-09-06T17:01:08.906Z,2.80
2023-09-06T17:03:35.920Z,2.33
2023-09-06T17:06:02.848Z,2.50
2023-09-06T17:08:30.054Z,2.67
2023-09-06T17:10:57.136Z,2.15
2023-09-06T17:13:25.147Z,2.50
2023-09-06T17:15:54.312Z,3.00
2023-09-06T17:18:22.086Z,2.80
2023-09-06T17:20:49.183Z,2.72
2023-09-06T17:23:17.484Z,2.60
2023-09-06T17:25:44.501Z,2.60
2023-09-06T17:28:13.135Z,2.50
2023-09-06T17:30:40.125Z,2.80
2023-09-06T17:33:19.774Z,2.65
2023-09-06T17:35:50.622Z,2.67
2023-09-06T17:38:18.997Z,2.67
2023-09-06T17:40:53.342Z,3.75
2023-09-06T17:43:24.424Z,2.80
2023-09-06T17:45:52.581Z,2.85
2023-09-06T17:48:20.221Z,3.00
2023-09-06T17:50:50.993Z,2.80
2023-09-06T17:53:21.240Z,2.83
2023-09-06T17:55:51.596Z,2.58
2023-09-06T17:58:19.221Z,3.10
2023-09-06T18:00:48.888Z,2.88
2023-09-06T18:03:19.284Z,2.83
2023-09-06T18:05:56.686Z,2.90
2023-09-06T18:08:26.910Z,3.28
2023-09-06T18:10:54.208Z,3.28
2023-09-06T18:13:21.823Z,2.88
2023-09-06T18:15:50.370Z,2.70
2023-09-06T18:18:18.077Z,3.22
2023-09-06T18:20:45.808Z,2.92
2023-09-06T18:23:13.944Z,3.05
2023-09-06T18:25:41.600Z,2.97
2023-09-06T18:28:11.904Z,3.28
2023-09-06T18:30:45.888Z,3.70
2023-09-06T18:33:13.245Z,3.33
2023-09-06T18:35:40.164Z,3.15
2023-09-06T18:38:08.237Z,3.70
2023-09-06T18:40:35.338Z,3.38
2023-09-06T18:43:03.586Z,3.20
2023-09-06T18:45:31.715Z,3.72
2023-09-06T18:47:58.978Z,3.63
2023-09-06T18:50:26.023Z,3.15
2023-09-06T18:52:53.393Z,3.25
2023-09-06T18:55:20.938Z,3.72
2023-09-06T18:58:03.389Z,3.03
2023-09-06T19:00:35.550Z,3.25
2023-09-06T19:03:07.111Z,3.38
2023-09-06T19:08:04.837Z,3.97
2023-09-06T19:10:35.345Z,4.20
2023-09-06T19:13:02.303Z,3.92
2023-09-06T19:15:29.678Z,3.83
2023-09-06T19:17:56.777Z,3.53
2023-09-06T19:20:23.702Z,4.07
2023-09-06T19:22:54.195Z,3.53
2023-09-06T19:25:25.365Z,3.80
2023-09-06T19:27:53.627Z,3.97
2023-09-06T19:30:20.634Z,3.47
2023-09-06T19:32:47.682Z,3.92
2023-09-06T19:35:15.455Z,4.07
2023-09-06T19:37:42.575Z,4.10
2023-09-06T19:40:09.959Z,3.70
2023-09-06T19:42:37.100Z,3.67
2023-09-06T19:45:04.196Z,3.63
2023-09-06T19:47:31.580Z,3.72
2023-09-06T19:49:58.804Z,3.88
2023-09-06T19:52:25.866Z,3.75
2023-09-06T19:55:01.030Z,3.50
2023-09-06T19:57:30.649Z,3.65
2023-09-06T19:59:58.780Z,3.70
2023-09-06T20:02:26.022Z,3.20
2023-09-06T20:04:53.209Z,3.67
2023-09-06T20:07:20.330Z,4.00
2023-09-06T20:09:47.335Z,3.97
2023-09-06T20:12:14.341Z,4.00
2023-09-06T20:14:41.400Z,3.35
2023-09-06T20:17:08.382Z,3.92
2023-09-06T20:19:35.448Z,3.78
2023-09-06T20:22:02.422Z,3.90
2023-09-06T20:24:30.413Z,4.07
2023-09-06T20:26:57.351Z,4.20
2023-09-06T20:29:33.173Z,4.13
2023-09-06T20:32:01.078Z,4.13
2023-09-06T20:34:28.436Z,4.30
2023-09-06T20:36:55.443Z,4.57
2023-09-06T20:39:22.337Z,4.60
2023-09-06T20:41:50.412Z,4.57
2023-09-06T20:44:17.459Z,4.00
2023-09-06T20:46:45.645Z,4.68
2023-09-06T20:49:17.378Z,4.90
2023-09-06T20:51:48.573Z,4.40
2023-09-06T20:54:15.771Z,4.32
2023-09-06T20:56:42.794Z,4.30
2023-09-06T20:59:09.727Z,4.05
2023-09-06T21:01:36.914Z,3.72
2023-09-06T21:04:04.048Z,4.57
2023-09-06T21:06:32.318Z,3.90
2023-09-06T21:09:00.439Z,4.25
2023-09-06T21:11:27.613Z,4.35
2023-09-06T21:13:54.655Z,4.35
2023-09-06T21:16:21.733Z,4.22
2023-09-06T21:18:48.788Z,4.65
2023-09-06T21:21:15.851Z,4.28
2023-09-06T21:23:43.809Z,4.40
2023-09-06T21:26:11.098Z,4.95
2023-09-06T21:28:38.056Z,3.92
2023-09-06T21:31:05.346Z,4.43
2023-09-06T21:33:33.359Z,4.45
2023-09-06T21:36:00.506Z,4.43
2023-09-06T21:38:27.646Z,4.47
2023-09-06T21:40:56.502Z,4.20
2023-09-06T21:43:23.449Z,4.32
2023-09-06T21:45:54.735Z,4.20
2023-09-06T21:48:22.496Z,4.53
2023-09-06T21:50:54.077Z,5.03
2023-09-06T21:53:21.814Z,4.68
2023-09-06T21:55:48.815Z,4.63
2023-09-06T21:58:15.797Z,4.63
2023-09-06T22:01:03.036Z,4.38
2023-09-06T22:03:48.836Z,4.80
2023-09-06T22:06:35.388Z,4.50
2023-09-06T22:09:21.804Z,4.85
2023-09-06T22:12:07.636Z,5.05
2023-09-06T22:14:34.625Z,4.90
2023-09-06T22:17:01.595Z,4.72
2023-09-06T22:19:28.510Z,4.85
2023-09-06T22:21:55.727Z,5.05
2023-09-06T22:24:22.636Z,4.75
2023-09-06T22:26:49.519Z,4.90
2023-09-06T22:29:18.253Z,4.68
2023-09-06T22:31:46.143Z,4.65
2023-09-06T22:34:13.885Z,4.63
2023-09-06T22:36:40.972Z,4.57
2023-09-06T22:39:08.072Z,4.55
2023-09-06T22:41:35.098Z,4.72
2023-09-06T22:44:02.100Z,4.85
2023-09-06T22:46:29.087Z,4.72
2023-09-06T22:48:56.125Z,4.45
2023-09-06T22:51:23.385Z,5.03
2023-09-06T22:53:50.304Z,4.88
2023-09-06T22:56:17.303Z,5.20
2023-09-06T22:58:44.288Z,5.00
2023-09-06T23:01:11.600Z,4.43
2023-09-06T23:03:38.764Z,5.65
2023-09-06T23:06:11.374Z,5.07
2023-09-06T23:08:40.100Z,4.93
2023-09-06T23:11:07.793Z,4.95
2023-09-06T23:13:35.871Z,4.80
2023-09-06T23:16:03.078Z,5.32
2023-09-06T23:18:32.546Z,4.95
2023-09-06T23:21:06.259Z,5.18
2023-09-06T23:23:34.584Z,5.30
2023-09-06T23:26:05.445Z,5.18
2023-09-06T23:28:35.513Z,5.05
2023-09-06T23:31:06.825Z,5.80
2023-09-06T23:33:55.543Z,5.35
2023-09-06T23:36:24.900Z,5.43
2023-09-06T23:38:54.551Z,5.57
2023-09-06T23:41:24.270Z,5.82
2023-09-06T23:43:52.758Z,5.40
2023-09-06T23:46:22.209Z,5.57
2023-09-06T23:48:49.524Z,6.00
2023-09-06T23:51:16.602Z,5.93
2023-09-06T23:53:43.784Z,6.05
2023-09-06T23:56:12.117Z,6.32
2023-09-06T23:58:39.060Z,6.15
